Aeroporto :
LOGIN :

Iscrizione | Disclaimer

   EN    FR    IT 

 










Sommario :    VFR   VFR Marginale   IFR   IFR Intensivo   IFR Molto Intensivo
Visibilità : 
Base nubi : 
>= 8 km
>= 3000ft
5 / 8 km
1000 / 3000 ft
1500m / 5 km
500 / 1000 ft
800 / 1500m
200 / 500 ft
< 800m
< 200 ft
Simboli :   Temporali  Nebbia  Neve Forte  Precipitazioni Forti  Vento > 20 kt
SIGMETs :   Varie  Temporali  Ghiacco  Turbolenza  Onda orograficha  Ceneri Vulcaniche






- Altitudine del aeroporto : 202 ft
- Codice IATA : LGW


EGKK - London Gatwick

ULTIMO METAR :
  • 112150Z 19003KT CAVOK 02/01 Q1003

METARs OBSOLETI :
  • 112120Z VRB02KT CAVOK 02/02 Q1003
  • 112050Z VRB03KT CAVOK 03/02 Q1003
  • 112020Z 26005KT CAVOK 03/02 Q1003
  • 111950Z 25006KT CAVOK 03/02 Q1002
  • 111920Z 25005KT CAVOK 04/03 Q1002

TAF TAF EGKK
Valido dal 11 a 18 ore il 13 a 00 ore UTC


111656Z 1118/1224 24005KT 9999 SCT035
TEMPO 1123/1208 6000
PROB30
TEMPO 1201/1207 0300 FZFG BKN001
BECMG 1209/1212 17013KT BKN012
PROB40
TEMPO 1209/1211 7000 -RA
TEMPO 1211/1220 17016G26KT 4000 RA BKN007
BECMG 1218/1221 23010KT BKN016
PROB40
TEMPO 1220/1224 5000 SHRA BKN012



MetMap, La meteo Aeronautica in un colpo d'occhio ! - Copyright ORBIFLY Dicembre 2007 - Disclaimer

ORBIFLY MET'MAP TEAM :

Programmazione e sviluppo : Alexandra Zaïnal
Concezione : Baudouin d'Aumeries
Aiuto per la programmazione : Marc-Olivier Méhu
Supporto tecnico e logistico : Manuel Goepfert
Aiuto per la traduzione : Arnaldo La Scala

Contatto : metmap@orbifly.com




FONTI E CREDITI :

   NOAA